Time;durP1;ratioP1;P1;durP2;ratioP2;P2;SDS_P1;SDS_P2;PMS_P1;PMS_P2;Temp;Humidity;BMP_temperature;BMP_pressure;BME280_temperature;BME280_humidity;BME280_pressure;Samples;Min_cycle;Max_cycle;Signal;HPM_P1;HPM_P2
2021/12/30 00:01:23;;;;;;;107.80;55.40;;;;;;;;;;5013528;28;20028;-77
2021/12/30 00:03:50;;;;;;;127.68;61.20;;;;;;;;;;5016685;28;20021;-77
2021/12/30 00:06:22;;;;;;;122.13;60.53;;;;;;;;;;5014594;28;20521;-77
2021/12/30 00:08:49;;;;;;;113.72;57.22;;;;;;;;;;5013745;28;20127;-78
2021/12/30 00:11:15;;;;;;;116.03;58.38;;;;;;;;;;5016343;28;20025;-76
2021/12/30 00:13:45;;;;;;;104.00;55.63;;;;;;;;;;5021554;28;20083;-75
2021/12/30 00:16:14;;;;;;;105.65;56.30;;;;;;;;;;5022532;28;20037;-76
2021/12/30 00:18:40;;;;;;;107.55;57.58;;;;;;;;;;5018693;28;20034;-76
2021/12/30 00:21:07;;;;;;;99.70;55.05;;;;;;;;;;5012370;28;20092;-77
2021/12/30 00:23:33;;;;;;;106.80;57.72;;;;;;;;;;5013104;28;20026;-77
2021/12/30 00:25:59;;;;;;;100.97;53.60;;;;;;;;;;5005837;28;20041;-76
2021/12/30 00:28:28;;;;;;;114.97;56.35;;;;;;;;;;5017315;28;20022;-76
2021/12/30 00:30:54;;;;;;;94.82;50.83;;;;;;;;;;5020880;28;20447;-77
2021/12/30 00:33:21;;;;;;;96.10;49.42;;;;;;;;;;5018042;28;20025;-77
2021/12/30 00:35:50;;;;;;;101.05;52.60;;;;;;;;;;5013877;28;20018;-77
2021/12/30 00:38:16;;;;;;;102.85;52.45;;;;;;;;;;5019308;28;20022;-77
2021/12/30 00:40:43;;;;;;;99.90;51.42;;;;;;;;;;5027679;28;20026;-77
2021/12/30 00:43:09;;;;;;;97.43;48.58;;;;;;;;;;5016969;28;20128;-77
2021/12/30 00:45:36;;;;;;;95.72;50.13;;;;;;;;;;5027561;28;20105;-77
2021/12/30 00:48:06;;;;;;;107.72;52.42;;;;;;;;;;5016538;28;20483;-77
2021/12/30 00:50:33;;;;;;;108.30;52.05;;;;;;;;;;5003703;28;20046;-77
2021/12/30 00:53:00;;;;;;;106.68;53.08;;;;;;;;;;5021719;28;20376;-77
2021/12/30 00:55:26;;;;;;;98.55;52.67;;;;;;;;;;5025054;28;20041;-78
2021/12/30 00:57:52;;;;;;;96.93;49.75;;;;;;;;;;5038857;28;20091;-77
2021/12/30 01:00:19;;;;;;;113.05;54.35;;;;;;;;;;5015818;28;20022;-76
2021/12/30 01:02:45;;;;;;;114.95;52.45;;;;;;;;;;5015095;28;20144;-77
2021/12/30 01:05:13;;;;;;;119.85;53.83;;;;;;;;;;5023714;28;20475;-76
2021/12/30 01:07:41;;;;;;;105.65;50.63;;;;;;;;;;5006096;28;20492;-76
2021/12/30 01:10:09;;;;;;;116.82;53.28;;;;;;;;;;5018291;28;20026;-76
2021/12/30 01:12:36;;;;;;;120.00;52.83;;;;;;;;;;5021340;28;20391;-76
2021/12/30 01:15:07;;;;;;;119.00;52.97;;;;;;;;;;5020557;28;20029;-76
2021/12/30 01:17:46;;;;;;;109.68;48.15;;;;;;;;;;5034108;28;20017;-76
2021/12/30 01:20:15;;;;;;;127.82;51.42;;;;;;;;;;5021575;28;20028;-76
2021/12/30 01:22:41;;;;;;;122.57;53.85;;;;;;;;;;5027987;28;20030;-76
2021/12/30 01:25:08;;;;;;;111.85;50.92;;;;;;;;;;5013065;28;20022;-76
2021/12/30 01:27:40;;;;;;;120.20;53.53;;;;;;;;;;4997473;28;20435;-77
2021/12/30 01:30:07;;;;;;;130.73;55.42;;;;;;;;;;5034588;28;20013;-76
2021/12/30 01:32:33;;;;;;;141.02;53.65;;;;;;;;;;5008172;28;20105;-76
2021/12/30 01:35:00;;;;;;;152.73;54.58;;;;;;;;;;5014545;28;20037;-76
2021/12/30 01:37:26;;;;;;;143.38;50.38;;;;;;;;;;5015537;28;20025;-76
2021/12/30 01:39:53;;;;;;;131.65;47.25;;;;;;;;;;5007524;28;20029;-76
2021/12/30 01:42:19;;;;;;;123.07;48.17;;;;;;;;;;5030233;28;20017;-76
2021/12/30 01:44:46;;;;;;;124.47;44.40;;;;;;;;;;5016645;28;20030;-76
2021/12/30 01:47:12;;;;;;;101.25;40.90;;;;;;;;;;5027455;28;20474;-75
2021/12/30 01:49:38;;;;;;;118.68;43.33;;;;;;;;;;5021120;28;20040;-76
2021/12/30 01:52:04;;;;;;;128.70;44.00;;;;;;;;;;5027018;28;20046;-75
2021/12/30 01:54:31;;;;;;;115.10;42.40;;;;;;;;;;5010668;28;20053;-75
2021/12/30 01:57:02;;;;;;;114.03;41.65;;;;;;;;;;5031433;28;20048;-76
2021/12/30 01:59:28;;;;;;;109.55;40.00;;;;;;;;;;5035633;28;20017;-76
2021/12/30 02:01:56;;;;;;;186.15;41.55;;;;;;;;;;5040539;28;20021;-76
2021/12/30 02:04:26;;;;;;;113.43;40.03;;;;;;;;;;5031164;28;20040;-76
2021/12/30 02:06:55;;;;;;;120.40;42.20;;;;;;;;;;5037352;28;20037;-76
2021/12/30 02:09:21;;;;;;;123.00;39.92;;;;;;;;;;5032776;28;20063;-76
2021/12/30 02:11:49;;;;;;;109.82;37.08;;;;;;;;;;5032748;28;20028;-76
2021/12/30 02:14:15;;;;;;;102.00;37.60;;;;;;;;;;5039166;28;20549;-76
2021/12/30 02:16:42;;;;;;;138.25;40.17;;;;;;;;;;5033749;28;20036;-77
2021/12/30 02:19:08;;;;;;;115.32;38.58;;;;;;;;;;5028769;28;20063;-76
2021/12/30 02:21:34;;;;;;;120.75;35.97;;;;;;;;;;5047043;28;20025;-76
2021/12/30 02:24:00;;;;;;;119.47;36.90;;;;;;;;;;5038154;28;20030;-75
2021/12/30 02:26:27;;;;;;;112.65;34.97;;;;;;;;;;5034916;28;20383;-75
2021/12/30 02:28:53;;;;;;;92.60;31.45;;;;;;;;;;5039789;28;20406;-76
2021/12/30 02:31:22;;;;;;;95.43;31.35;;;;;;;;;;5009569;28;20048;-76
2021/12/30 02:33:49;;;;;;;115.75;32.90;;;;;;;;;;5038261;28;20036;-76
2021/12/30 02:36:18;;;;;;;116.70;34.20;;;;;;;;;;5035966;28;20026;-76
2021/12/30 02:38:46;;;;;;;97.22;32.83;;;;;;;;;;5033668;28;20030;-76
2021/12/30 02:41:17;;;;;;;432.85;41.20;;;;;;;;;;5046422;28;20025;-75
2021/12/30 02:43:44;;;;;;;206.95;38.15;;;;;;;;;;5043935;28;20024;-76
2021/12/30 02:46:10;;;;;;;710.67;47.72;;;;;;;;;;5018430;28;20029;-76
2021/12/30 02:48:37;;;;;;;636.25;43.55;;;;;;;;;;5037780;28;20021;-76
2021/12/30 02:51:07;;;;;;;205.05;38.00;;;;;;;;;;5033660;28;20109;-76
2021/12/30 02:53:33;;;;;;;170.45;37.53;;;;;;;;;;5014365;28;20017;-76
2021/12/30 02:55:59;;;;;;;331.83;40.33;;;;;;;;;;5035331;28;20038;-76
2021/12/30 02:58:26;;;;;;;373.73;45.88;;;;;;;;;;5029036;28;20040;-76
2021/12/30 03:01:01;;;;;;;435.58;47.78;;;;;;;;;;5034671;28;20029;-76
2021/12/30 03:03:27;;;;;;;513.58;52.45;;;;;;;;;;5037090;28;20513;-76
2021/12/30 03:05:58;;;;;;;356.42;44.53;;;;;;;;;;5033307;28;20029;-76
2021/12/30 03:08:24;;;;;;;389.30;48.90;;;;;;;;;;5035803;28;20037;-76
2021/12/30 03:10:50;;;;;;;511.98;47.13;;;;;;;;;;5035528;28;20022;-76
2021/12/30 03:13:19;;;;;;;726.03;50.28;;;;;;;;;;5032312;28;20037;-76
2021/12/30 03:15:46;;;;;;;323.50;41.92;;;;;;;;;;5032653;28;20021;-76
2021/12/30 03:18:13;;;;;;;545.97;46.53;;;;;;;;;;5025846;28;20029;-76
2021/12/30 03:20:39;;;;;;;929.22;51.63;;;;;;;;;;5012815;28;20079;-75
2021/12/30 03:23:05;;;;;;;691.28;45.92;;;;;;;;;;5030738;28;20483;-76
2021/12/30 03:25:31;;;;;;;340.88;40.83;;;;;;;;;;5033630;28;20041;-76
2021/12/30 03:27:58;;;;;;;247.93;39.47;;;;;;;;;;5034807;28;20025;-76
2021/12/30 03:30:24;;;;;;;136.23;34.13;;;;;;;;;;5031977;28;20018;-76
2021/12/30 03:32:51;;;;;;;719.50;44.45;;;;;;;;;;5034543;28;20063;-76
2021/12/30 03:35:17;;;;;;;298.73;35.22;;;;;;;;;;5014504;28;20037;-76
2021/12/30 03:37:43;;;;;;;336.25;36.00;;;;;;;;;;5034612;28;20029;-76
2021/12/30 03:40:12;;;;;;;639.63;39.10;;;;;;;;;;5033327;28;20026;-76
2021/12/30 03:42:38;;;;;;;163.55;30.60;;;;;;;;;;5033554;28;20021;-76
2021/12/30 03:45:05;;;;;;;586.50;39.10;;;;;;;;;;5029280;28;20025;-76
2021/12/30 03:47:31;;;;;;;768.33;43.42;;;;;;;;;;5022010;28;20033;-76
2021/12/30 03:49:57;;;;;;;120.65;30.63;;;;;;;;;;5032586;28;20021;-76
2021/12/30 03:52:29;;;;;;;189.13;39.53;;;;;;;;;;5034143;28;20045;-76
2021/12/30 03:54:55;;;;;;;218.77;29.88;;;;;;;;;;5031117;28;20060;-76
2021/12/30 03:57:21;;;;;;;204.38;30.60;;;;;;;;;;5037021;28;20032;-76
2021/12/30 03:59:47;;;;;;;168.40;29.85;;;;;;;;;;5034029;28;20021;-76
2021/12/30 04:02:16;;;;;;;420.20;38.25;;;;;;;;;;5032598;28;20029;-76
2021/12/30 04:04:42;;;;;;;109.90;31.75;;;;;;;;;;5017439;28;20045;-76
2021/12/30 04:07:08;;;;;;;149.43;28.55;;;;;;;;;;5035482;28;20017;-76
2021/12/30 04:09:36;;;;;;;270.63;33.22;;;;;;;;;;5039957;28;20065;-76
2021/12/30 04:12:02;;;;;;;279.08;34.38;;;;;;;;;;5036380;28;20049;-76
2021/12/30 04:14:28;;;;;;;269.35;31.33;;;;;;;;;;5030156;28;20522;-76
2021/12/30 04:16:59;;;;;;;167.13;29.60;;;;;;;;;;5030809;28;20033;-76
2021/12/30 04:19:25;;;;;;;575.63;40.90;;;;;;;;;;5029108;28;20393;-77
2021/12/30 04:21:54;;;;;;;403.48;40.80;;;;;;;;;;5042749;28;20025;-77
2021/12/30 04:24:20;;;;;;;189.60;36.10;;;;;;;;;;5035539;28;20091;-77
2021/12/30 04:26:50;;;;;;;280.90;33.50;;;;;;;;;;5018978;28;20546;-77
2021/12/30 04:29:17;;;;;;;266.33;34.65;;;;;;;;;;5037620;28;20136;-77
2021/12/30 04:31:43;;;;;;;129.15;30.27;;;;;;;;;;5030988;28;20390;-77
2021/12/30 04:34:09;;;;;;;237.18;32.50;;;;;;;;;;5033676;28;20030;-77
2021/12/30 04:36:44;;;;;;;288.90;33.85;;;;;;;;;;5039604;28;20029;-78
2021/12/30 04:39:23;;;;;;;212.45;31.80;;;;;;;;;;5046499;28;20036;-80
2021/12/30 04:42:03;;;;;;;307.77;33.17;;;;;;;;;;5048594;28;20022;-79
2021/12/30 04:44:31;;;;;;;352.52;37.78;;;;;;;;;;4991927;28;20495;-77
2021/12/30 04:46:58;;;;;;;468.02;36.67;;;;;;;;;;5039464;28;20076;-75
2021/12/30 04:49:29;;;;;;;262.98;32.10;;;;;;;;;;5009344;28;20031;-76
2021/12/30 04:51:55;;;;;;;270.48;33.08;;;;;;;;;;5037138;28;20104;-74
2021/12/30 04:54:21;;;;;;;433.35;36.33;;;;;;;;;;5018582;28;20030;-76
2021/12/30 04:56:47;;;;;;;228.50;30.58;;;;;;;;;;5033510;28;20052;-75
2021/12/30 04:59:13;;;;;;;328.08;33.35;;;;;;;;;;5026634;28;20097;-74
2021/12/30 05:01:39;;;;;;;213.35;28.95;;;;;;;;;;5020313;28;20033;-74
2021/12/30 05:04:06;;;;;;;268.00;29.65;;;;;;;;;;5038224;28;20032;-74
2021/12/30 05:06:36;;;;;;;294.77;30.63;;;;;;;;;;5033258;28;20045;-75
2021/12/30 05:09:08;;;;;;;200.98;31.27;;;;;;;;;;5034758;28;20046;-75
2021/12/30 05:11:34;;;;;;;386.63;31.98;;;;;;;;;;5032330;28;20391;-76
2021/12/30 05:14:02;;;;;;;336.17;32.55;;;;;;;;;;5039879;28;20030;-76
2021/12/30 05:16:28;;;;;;;398.05;37.50;;;;;;;;;;5036626;28;20025;-76
2021/12/30 05:18:57;;;;;;;308.80;34.20;;;;;;;;;;5035586;28;20064;-75
2021/12/30 05:21:24;;;;;;;636.83;38.25;;;;;;;;;;5033146;28;20032;-76
2021/12/30 05:23:50;;;;;;;166.00;40.33;;;;;;;;;;5035067;28;20041;-76
2021/12/30 05:26:16;;;;;;;115.80;33.55;;;;;;;;;;5034435;28;20029;-76
2021/12/30 05:28:43;;;;;;;140.32;37.72;;;;;;;;;;5029275;28;20021;-76
2021/12/30 05:31:09;;;;;;;199.32;34.78;;;;;;;;;;5031565;28;20065;-76
2021/12/30 05:33:36;;;;;;;116.07;27.60;;;;;;;;;;5018003;28;20034;-77
2021/12/30 05:36:03;;;;;;;158.75;41.83;;;;;;;;;;5017998;28;20046;-75
2021/12/30 05:38:30;;;;;;;150.27;29.83;;;;;;;;;;5035637;28;20021;-75
2021/12/30 05:40:56;;;;;;;327.48;56.45;;;;;;;;;;5036032;28;20406;-76
2021/12/30 05:43:22;;;;;;;140.13;28.60;;;;;;;;;;5038203;28;20029;-76
2021/12/30 05:45:48;;;;;;;186.52;30.70;;;;;;;;;;5033370;28;20014;-76
2021/12/30 05:48:15;;;;;;;115.03;27.98;;;;;;;;;;5028225;28;20057;-78
2021/12/30 05:50:41;;;;;;;351.63;31.73;;;;;;;;;;5036371;28;20108;-75
2021/12/30 05:53:09;;;;;;;340.73;34.13;;;;;;;;;;5037478;28;20530;-75
2021/12/30 05:55:36;;;;;;;467.48;33.22;;;;;;;;;;5021887;28;20046;-75
2021/12/30 05:58:02;;;;;;;156.57;32.75;;;;;;;;;;5036722;28;20096;-76
2021/12/30 06:00:29;;;;;;;577.10;68.47;;;;;;;;;;5039261;28;20030;-74
2021/12/30 06:02:56;;;;;;;378.67;86.05;;;;;;;;;;5035843;28;20547;-75
2021/12/30 06:05:24;;;;;;;125.20;30.45;;;;;;;;;;5020641;28;20053;-75
2021/12/30 06:07:50;;;;;;;106.60;28.98;;;;;;;;;;5030297;28;20057;-75
2021/12/30 06:10:19;;;;;;;304.83;31.40;;;;;;;;;;5037656;28;20034;-75
2021/12/30 06:12:46;;;;;;;314.02;44.95;;;;;;;;;;5040372;28;20034;-75
2021/12/30 06:15:13;;;;;;;243.73;38.78;;;;;;;;;;5035232;28;20033;-75
2021/12/30 06:17:42;;;;;;;189.60;33.42;;;;;;;;;;5038729;28;20071;-75
2021/12/30 06:20:10;;;;;;;181.75;34.08;;;;;;;;;;5032992;28;20025;-76
2021/12/30 06:22:36;;;;;;;173.25;28.15;;;;;;;;;;5024685;28;20032;-75
2021/12/30 06:25:03;;;;;;;85.47;24.80;;;;;;;;;;5040964;28;20074;-76
2021/12/30 06:27:29;;;;;;;109.50;27.65;;;;;;;;;;5044292;28;20029;-75
2021/12/30 06:29:56;;;;;;;132.52;31.27;;;;;;;;;;5041688;28;20041;-76
2021/12/30 06:32:23;;;;;;;474.60;49.22;;;;;;;;;;5042444;28;20030;-76
2021/12/30 06:34:50;;;;;;;244.13;34.13;;;;;;;;;;5022596;28;20075;-76
2021/12/30 06:37:17;;;;;;;230.10;30.70;;;;;;;;;;5038547;28;20079;-75
2021/12/30 06:39:43;;;;;;;315.00;40.92;;;;;;;;;;5034647;28;20029;-76
2021/12/30 06:42:12;;;;;;;409.33;50.53;;;102.50;2227.20;;;;;;5039535;28;20048;-78
2021/12/30 06:44:39;;;;;;;433.45;45.25;;;102.40;2227.20;;;;;;5043491;28;20039;-78
2021/12/30 06:47:05;;;;;;;161.15;33.13;;;102.40;2227.20;;;;;;5020553;28;20037;-75
2021/12/30 06:49:38;;;;;;;167.65;31.50;;;77.70;2227.20;;;;;;5038955;28;20034;-75
2021/12/30 06:52:06;;;;;;;167.98;30.65;;;77.70;2227.20;;;;;;5025496;28;20042;-74
2021/12/30 06:54:32;;;;;;;161.05;33.30;;;77.70;2227.20;;;;;;5030111;28;20466;-74
2021/12/30 06:57:00;;;;;;;207.88;31.38;;;77.70;2227.20;;;;;;5013554;28;20054;-75
2021/12/30 06:59:27;;;;;;;594.92;41.10;;;77.70;2227.20;;;;;;5029797;28;20018;-75
2021/12/30 07:01:56;;;;;;;366.70;33.45;;;77.70;2227.20;;;;;;5019094;28;20069;-76
2021/12/30 07:04:29;;;;;;;345.27;31.85;;;102.60;2227.20;;;;;;5026818;28;20380;-78
2021/12/30 07:06:55;;;;;;;255.02;35.55;;;;;;;;;;5034211;28;20041;-74
2021/12/30 07:09:21;;;;;;;237.25;34.75;;;;;;;;;;5034548;28;20038;-75
2021/12/30 07:11:51;;;;;;;219.90;30.63;;;;;;;;;;5037029;28;20036;-77
2021/12/30 07:14:18;;;;;;;126.75;28.27;;;;;;;;;;5032821;28;20033;-77
2021/12/30 07:16:45;;;;;;;372.40;35.30;;;;;;;;;;5033056;28;20025;-77
2021/12/30 07:19:11;;;;;;;268.48;36.15;;;;;;;;;;5032258;28;20041;-76
2021/12/30 07:22:00;;;;;;;297.27;40.08;;;;;;;;;;5036039;28;20034;-76
2021/12/30 07:24:26;;;;;;;280.35;43.55;;;;;;;;;;5032307;28;20083;-78
2021/12/30 07:26:52;;;;;;;299.58;44.33;;;;;;;;;;5043299;28;20030;-75
2021/12/30 07:29:18;;;;;;;466.75;70.00;;;;;;;;;;5022783;28;20033;-75
2021/12/30 07:31:44;;;;;;;184.18;43.90;;;;;;;;;;5033954;28;20471;-77
2021/12/30 07:34:12;;;;;;;154.90;41.00;;;;;;;;;;5032573;28;20042;-76
2021/12/30 07:36:38;;;;;;;251.93;38.28;;;;;;;;;;5036923;28;20021;-76
2021/12/30 07:39:05;;;;;;;278.88;38.60;;;;;;;;;;5037358;28;20032;-73
2021/12/30 07:41:33;;;;;;;239.05;38.88;;;;;;;;;;5034851;28;20041;-76
2021/12/30 07:44:02;;;;;;;298.70;48.80;;;;;;;;;;5028410;28;20112;-76
2021/12/30 07:46:28;;;;;;;166.77;37.72;;;;;;;;;;5025745;28;20506;-77
2021/12/30 07:48:54;;;;;;;270.48;37.25;;;;;;;;;;5022662;28;20033;-76
2021/12/30 07:51:20;;;;;;;352.00;36.75;;;;;;;;;;5034210;28;20071;-77
2021/12/30 07:53:46;;;;;;;141.27;31.13;;;;;;;;;;5034334;28;20100;-75
2021/12/30 07:56:12;;;;;;;164.13;31.30;;;;;;;;;;5032515;28;20041;-76
2021/12/30 07:58:38;;;;;;;246.98;43.17;;;;;;;;;;5034038;28;20026;-75
2021/12/30 08:01:04;;;;;;;192.73;33.85;;;;;;;;;;5032179;28;20112;-76
2021/12/30 08:03:30;;;;;;;113.10;37.33;;;;;;;;;;5034678;28;20035;-77
2021/12/30 08:05:56;;;;;;;125.45;44.13;;;;;;;;;;5021479;28;20360;-76
2021/12/30 08:08:22;;;;;;;269.17;43.38;;;;;;;;;;5036458;28;20037;-76
2021/12/30 08:10:49;;;;;;;237.07;34.15;;;;;;;;;;5036501;28;20047;-76
2021/12/30 08:13:15;;;;;;;122.85;35.92;;;;;;;;;;5037737;28;20030;-76
2021/12/30 08:15:41;;;;;;;215.32;51.65;;;;;;;;;;5011498;28;20018;-75
2021/12/30 08:18:09;;;;;;;159.77;34.13;;;;;;;;;;5037682;28;20096;-75
2021/12/30 08:20:35;;;;;;;102.45;28.00;;;;;;;;;;5038527;28;20037;-75
2021/12/30 08:23:01;;;;;;;86.15;32.33;;;;;;;;;;5031785;28;20061;-75
2021/12/30 08:25:27;;;;;;;131.60;28.67;;;;;;;;;;5031961;28;20067;-75
2021/12/30 08:27:55;;;;;;;81.40;28.02;;;;;;;;;;5024154;28;20100;-77
2021/12/30 08:30:21;;;;;;;71.57;26.05;;;;;;;;;;5031511;28;20013;-73
2021/12/30 08:32:48;;;;;;;70.60;25.23;;;;;;;;;;5025105;28;20022;-77
2021/12/30 08:35:21;;;;;;;53.70;22.52;;;;;;;;;;5026218;28;20537;-75
2021/12/30 08:41:22;;;;;;;58.60;28.40;;;;;;;;;;4981160;28;20594;-74
2021/12/30 08:43:53;;;;;;;64.22;28.92;;;;;;;;;;4976214;28;20035;-73
2021/12/30 08:46:20;;;;;;;69.03;28.42;;;;;;;;;;4961924;28;20039;-75
2021/12/30 08:49:10;;;;;;;155.05;29.25;;;;;;;;;;4981673;28;20045;-78
2021/12/30 08:51:51;;;;;;;58.17;26.80;;;;;;;;;;4886805;29;20041;-79
2021/12/30 08:54:17;;;;;;;75.93;27.75;;;;;;;;;;4898455;29;20137;-75
2021/12/30 08:56:43;;;;;;;66.72;27.17;;;;;;;;;;4882135;29;20541;-73
2021/12/30 08:59:09;;;;;;;66.30;30.40;;;;;;;;;;4897565;29;20048;-74
2021/12/30 09:01:42;;;;;;;55.15;24.35;;;;;;;;;;4883159;29;20047;-74
2021/12/30 09:04:08;;;;;;;52.77;24.23;;;;;;;;;;4885665;29;20029;-76
2021/12/30 09:06:35;;;;;;;59.53;25.17;;;;;;;;;;4883016;29;20285;-75
2021/12/30 09:09:17;;;;;;;50.75;22.80;;;;;;;;;;4908170;29;20068;-78
2021/12/30 09:11:43;;;;;;;62.95;25.20;;;;;;;;;;4893573;29;20046;-78
2021/12/30 09:14:13;;;;;;;50.08;24.33;;;;;;;;;;4897440;29;20092;-79
2021/12/30 09:16:44;;;;;;;40.65;20.73;;;;;;;;;;4903967;29;20052;-77
2021/12/30 09:19:19;;;;;;;39.67;20.67;;;;;;;;;;4926606;29;20119;-76
2021/12/30 09:22:00;;;;;;;39.13;20.15;;;;;;;;;;4909125;29;20100;-78
2021/12/30 09:24:28;;;;;;;34.72;17.33;;;;;;;;;;4923155;29;20036;-77
2021/12/30 09:26:58;;;;;;;39.67;20.98;;;;;;;;;;4952609;29;20031;-80
2021/12/30 09:29:37;;;;;;;36.65;20.10;;;;;;;;;;4944528;29;20070;-77
2021/12/30 09:32:06;;;;;;;44.00;25.17;;;;;;;;;;4936021;29;20059;-77
2021/12/30 09:34:35;;;;;;;38.90;22.98;;;;;;;;;;4931353;29;21393;-77
2021/12/30 09:37:02;;;;;;;49.63;31.05;;;;;;;;;;4927037;29;20035;-76
2021/12/30 09:39:52;;;;;;;42.58;26.45;;;;;;;;;;4948681;29;20553;-80
2021/12/30 09:44:56;;;;;;;38.28;23.88;;;;;;;;;;5227232;23;20080;-76
2021/12/30 09:47:22;;;;;;;38.58;22.38;;;;;;;;;;5051478;28;20045;-77
2021/12/30 09:49:52;;;;;;;39.40;22.52;;;;;;;;;;5035050;28;20029;-77
2021/12/30 09:52:23;;;;;;;36.90;23.88;;;;;;;;;;5052370;28;20034;-77
2021/12/30 09:54:49;;;;;;;40.15;25.58;;;;;;;;;;5046187;28;20038;-76
2021/12/30 09:57:15;;;;;;;37.25;20.45;;;;;;;;;;5039290;28;20090;-76
2021/12/30 09:59:41;;;;;;;48.47;24.42;;;;;;;;;;5026226;28;20053;-77
2021/12/30 10:02:07;;;;;;;35.28;21.65;;;;;;;;;;5038778;28;20021;-74
2021/12/30 10:04:34;;;;;;;42.63;27.67;;;;;;;;;;5054847;28;20033;-76
2021/12/30 10:09:52;;;;;;;40.08;22.50;;;;;;;;;;5233861;22;20057;-74
2021/12/30 10:12:34;;;;;;;44.83;24.80;;;;;;;;;;5055896;28;20029;-75
2021/12/30 10:15:01;;;;;;;50.15;27.63;;;;;;;;;;5035188;28;20033;-77
2021/12/30 10:17:31;;;;;;;56.72;30.90;;;;;;;;;;5105071;22;20049;-74
2021/12/30 10:20:14;;;;;;;41.28;22.23;;;;;;;;;;5058858;28;20029;-75
2021/12/30 10:22:41;;;;;;;54.00;28.27;;;;;;;;;;5043652;28;20021;-75
2021/12/30 10:25:24;;;;;;;63.28;33.83;;;;;;;;;;5053366;28;20030;-74
2021/12/30 10:27:50;;;;;;;43.38;24.98;;;;;;;;;;5057267;28;20032;-75
2021/12/30 10:30:30;;;;;;;47.03;28.10;;;;;;;;;;5038538;28;20509;-76
2021/12/30 10:33:10;;;;;;;48.80;27.58;;;;;;;;;;5040701;28;20053;-74
2021/12/30 10:35:36;;;;;;;47.08;27.00;;;;;;;;;;5061202;28;20124;-76
2021/12/30 10:38:08;;;;;;;41.22;25.20;;;;;;;;;;5040537;28;20447;-74
2021/12/30 10:40:34;;;;;;;50.83;26.13;;;;;;;;;;5061333;28;20047;-75
2021/12/30 10:43:24;;;;;;;46.00;27.73;;;;;;;;;;5038194;28;20037;-74
2021/12/30 10:46:03;;;;;;;45.53;26.52;;;;;;;;;;5062105;28;20103;-76
2021/12/30 10:48:30;;;;;;;49.80;27.17;;;;;;;;;;5042421;28;20033;-78
2021/12/30 10:51:16;;;;;;;42.35;22.20;;;;;;;;;;5058400;28;20069;-77
2021/12/30 10:53:42;;;;;;;51.25;31.67;;;;;;;;;;5034984;28;20112;-76
2021/12/30 10:56:28;;;;;;;55.38;32.33;;;;;;;;;;5060712;28;20039;-75
2021/12/30 10:59:07;;;;;;;50.97;31.92;;;;;;;;;;5050931;28;20969;-75
2021/12/30 11:01:37;;;;;;;38.05;21.17;;;;;;;;;;5056044;28;20018;-75
2021/12/30 11:04:09;;;;;;;46.45;29.60;;;;;;;;;;5060352;28;20067;-76
2021/12/30 11:06:36;;;;;;;53.92;32.97;;;;;;;;;;5035413;28;20478;-76
2021/12/30 11:09:06;;;;;;;43.53;24.95;;;;;;;;;;5056275;28;20056;-75
2021/12/30 11:11:32;;;;;;;46.53;27.58;;;;;;;;;;5045901;28;20068;-75
2021/12/30 11:14:00;;;;;;;61.72;35.50;;;;;;;;;;5051358;28;20025;-74
2021/12/30 11:16:26;;;;;;;47.78;28.58;;;;;;;;;;5038902;28;20049;-75
2021/12/30 11:18:52;;;;;;;48.08;28.25;;;;;;;;;;5040372;28;20080;-73
2021/12/30 11:21:37;;;;;;;49.22;28.25;;;;;;;;;;5034331;28;20139;-74
2021/12/30 11:24:06;;;;;;;41.55;25.50;;;;;;;;;;5021553;28;20034;-80
2021/12/30 11:26:36;;;;;;;47.92;31.42;;;;;;;;;;5033170;28;20032;-76
2021/12/30 11:29:03;;;;;;;71.05;45.10;;;;;;;;;;5019423;28;20048;-77
2021/12/30 11:31:30;;;;;;;56.63;33.92;;;;;;;;;;5021014;28;20906;-75
2021/12/30 11:33:56;;;;;;;62.13;40.50;;;;;;;;;;5032506;28;20064;-75
2021/12/30 11:36:33;;;;;;;57.05;36.20;;;;;;;;;;5050536;28;20029;-73
2021/12/30 11:39:06;;;;;;;65.57;45.47;;;;;;;;;;5023636;28;20029;-72
2021/12/30 11:41:32;;;;;;;79.00;50.08;;;;;;;;;;5038123;28;20028;-75
2021/12/30 11:43:58;;;;;;;91.07;57.75;;;;;;;;;;5035010;28;20037;-76
2021/12/30 11:46:44;;;;;;;59.55;38.13;;;;;;;;;;5043779;28;20500;-74
2021/12/30 11:49:17;;;;;;;45.55;29.55;;;;;;;;;;5026543;28;20030;-75
2021/12/30 11:51:46;;;;;;;48.28;31.10;;;;;;;;;;5044593;28;20021;-75
2021/12/30 11:54:35;;;;;;;66.47;45.35;;;;;;;;;;5041917;28;20030;-75
2021/12/30 11:57:19;;;;;;;55.92;32.92;;;;;;;;;;5058982;28;20025;-76
2021/12/30 11:59:46;;;;;;;61.22;39.90;;;;;;;;;;5053378;28;20022;-75
2021/12/30 12:02:30;;;;;;;45.63;29.80;;;;;;;;;;5048540;28;20021;-76
2021/12/30 12:04:57;;;;;;;61.22;37.60;;;;;;;;;;5043551;28;20515;-76
2021/12/30 12:08:04;;;;;;;63.05;40.08;;;;;;;;;;5046430;28;20025;-77
2021/12/30 12:10:32;;;;;;;61.22;38.47;;;;;;;;;;5036771;28;20025;-75
2021/12/30 12:12:58;;;;;;;33.10;22.38;;;;;;;;;;5017223;28;20053;-74
2021/12/30 12:15:42;;;;;;;42.38;29.52;;;;;;;;;;5037887;28;20036;-74
2021/12/30 12:18:14;;;;;;;47.67;27.92;;;;;;;;;;5042916;28;20056;-73
2021/12/30 12:20:52;;;;;;;48.83;28.35;;;;;;;;;;5029383;28;20013;-74
2021/12/30 12:23:31;;;;;;;38.08;25.40;;;;;;;;;;5035601;28;20029;-74
2021/12/30 12:26:11;;;;;;;46.30;25.88;;;;;;;;;;5040071;28;20029;-74
2021/12/30 12:28:37;;;;;;;36.30;22.85;;;;;;;;;;5035710;28;20385;-74
2021/12/30 12:31:06;;;;;;;37.03;22.73;;;;;;;;;;5035649;28;20026;-73
2021/12/30 12:33:32;;;;;;;51.42;28.35;;;;;;;;;;5046352;28;20029;-74
2021/12/30 12:35:59;;;;;;;37.80;24.02;;;;;;;;;;5042492;28;20068;-74
2021/12/30 12:38:44;;;;;;;40.17;24.00;;;;;;;;;;5041769;28;20079;-74
2021/12/30 12:41:35;;;;;;;37.72;23.42;;;;;;;;;;5037539;28;20065;-74
2021/12/30 12:44:05;;;;;;;52.72;34.30;;;;;;;;;;4945405;29;20045;-75
2021/12/30 12:46:42;;;;;;;59.63;39.33;;;;;;;;;;4937632;29;20048;-75
2021/12/30 12:49:10;;;;;;;58.97;36.90;;;;;;;;;;4933253;28;20036;-75
2021/12/30 12:51:50;;;;;;;76.28;48.80;;;;;;;;;;4938442;29;20031;-73
2021/12/30 12:54:31;;;;;;;38.03;23.77;;;;;;;;;;4941788;29;20036;-76
2021/12/30 12:57:04;;;;;;;38.95;24.20;;;;;;;;;;4944548;29;20028;-77
2021/12/30 12:59:35;;;;;;;41.67;25.17;;;;;;;;;;4945231;29;20059;-76
2021/12/30 13:02:04;;;;;;;48.60;25.85;;;;;;;;;;4915760;29;20286;-76
2021/12/30 13:04:32;;;;;;;40.65;24.60;;;;;;;;;;4952999;29;20711;-74
2021/12/30 13:07:06;;;;;;;49.33;28.15;;;;;;;;;;4933567;29;20137;-76
2021/12/30 13:09:34;;;;;;;65.35;29.40;;;;;;;;;;4945594;29;20035;-73
2021/12/30 13:12:04;;;;;;;50.28;26.00;;;;;;;;;;4927509;29;20051;-71
2021/12/30 13:14:30;;;;;;;45.40;26.73;;;;;;;;;;4944072;29;20031;-76
2021/12/30 13:16:59;;;;;;;42.35;25.92;;;;;;;;;;4946029;29;20529;-77
2021/12/30 13:19:36;;;;;;;43.45;25.85;;;;;;;;;;4947137;29;20114;-73
2021/12/30 13:22:04;;;;;;;48.75;27.48;;;;;;;;;;5019061;28;20033;-74
2021/12/30 13:24:30;;;;;;;44.53;26.27;;;;;;;;;;5001825;28;20047;-71
2021/12/30 13:26:58;;;;;;;42.97;24.52;;;;;;;;;;5018471;28;20029;-71
2021/12/30 13:29:28;;;;;;;47.40;28.38;;;;;;;;;;4997035;28;20025;-74
2021/12/30 13:32:01;;;;;;;62.80;36.33;;;;;;;;;;5004388;28;20029;-72
2021/12/30 13:34:28;;;;;;;64.40;35.90;;;;;;;;;;5027481;28;20033;-73
2021/12/30 13:37:07;;;;;;;61.72;32.65;;;;;;;;;;5018082;28;20022;-74
2021/12/30 13:39:41;;;;;;;63.92;33.17;;;;;;;;;;5023124;28;20037;-75
2021/12/30 13:42:11;;;;;;;55.58;33.70;;;;;;;;;;5000197;28;20040;-72
2021/12/30 13:44:41;;;;;;;57.08;35.42;;;;;;;;;;5005685;28;20399;-71
2021/12/30 13:47:15;;;;;;;63.22;42.30;;;;;;;;;;5008287;28;20113;-70
2021/12/30 13:49:41;;;;;;;;;;;;;;;;;;5000054;28;20391;-71
2021/12/30 13:52:07;;;;;;;74.15;49.72;;;;;;;;;;4997074;28;19913;-73
2021/12/30 13:54:33;;;;;;;51.60;32.13;;;;;;;;;;5021074;28;20029;-74
2021/12/30 13:57:19;;;;;;;51.45;31.95;;;;;;;;;;5022752;28;20030;-72
2021/12/30 13:59:46;;;;;;;48.40;30.90;;;;;;;;;;5003276;28;20056;-72
2021/12/30 14:02:13;;;;;;;53.30;31.58;;;;;;;;;;5013418;28;20030;-72
2021/12/30 14:04:40;;;;;;;50.85;30.40;;;;;;;;;;5023958;28;20021;-75
2021/12/30 14:07:07;;;;;;;47.58;29.23;;;;;;;;;;5032686;28;20084;-73
2021/12/30 14:09:33;;;;;;;47.90;31.52;;;;;;;;;;5029015;28;20562;-74
2021/12/30 14:12:08;;;;;;;43.60;29.33;;;;;;;;;;5019915;28;20053;-73
2021/12/30 14:14:37;;;;;;;45.38;27.65;;;;;;;;;;5028813;28;20084;-71
2021/12/30 14:17:03;;;;;;;43.58;28.55;;;;;;;;;;5018708;28;20049;-72
2021/12/30 14:19:52;;;;;;;50.47;31.38;;;;;;;;;;5029756;28;20108;-72
2021/12/30 14:22:19;;;;;;;49.08;30.10;;;;;;;;;;5013594;28;20053;-74
2021/12/30 14:24:45;;;;;;;44.22;29.15;;;;;;;;;;5005023;28;20042;-72
2021/12/30 14:27:16;;;;;;;44.50;29.17;;;;;;;;;;4993990;28;20037;-71